sensor_id;sensor_type;location;lat;lon;timestamp;temperature;humidity
70166;SHT30;57541;47.408;18.822;2024-01-16T00:00:27;0.45;88.29
70166;SHT30;57541;47.408;18.822;2024-01-16T00:00:59;0.42;88.34
70166;SHT30;57541;47.408;18.822;2024-01-16T00:01:31;0.41;88.36
70166;SHT30;57541;47.408;18.822;2024-01-16T00:02:02;0.38;88.57
70166;SHT30;57541;47.408;18.822;2024-01-16T00:02:34;0.35;88.71
70166;SHT30;57541;47.408;18.822;2024-01-16T00:03:06;0.33;88.69
70166;SHT30;57541;47.408;18.822;2024-01-16T00:03:38;0.38;88.66
70166;SHT30;57541;47.408;18.822;2024-01-16T00:04:10;0.49;88.78
70166;SHT30;57541;47.408;18.822;2024-01-16T00:04:42;0.45;88.68
70166;SHT30;57541;47.408;18.822;2024-01-16T00:05:14;0.42;88.82
70166;SHT30;57541;47.408;18.822;2024-01-16T00:05:46;0.41;88.81
70166;SHT30;57541;47.408;18.822;2024-01-16T00:06:18;0.46;88.95
70166;SHT30;57541;47.408;18.822;2024-01-16T00:06:50;0.45;88.93
70166;SHT30;57541;47.408;18.822;2024-01-16T00:07:22;0.48;88.97
70166;SHT30;57541;47.408;18.822;2024-01-16T00:07:53;0.46;88.93
70166;SHT30;57541;47.408;18.822;2024-01-16T00:08:25;0.43;89.02
70166;SHT30;57541;47.408;18.822;2024-01-16T00:08:57;0.42;89.08
70166;SHT30;57541;47.408;18.822;2024-01-16T00:09:29;0.38;89.09
70166;SHT30;57541;47.408;18.822;2024-01-16T00:10:00;0.39;89.17
70166;SHT30;57541;47.408;18.822;2024-01-16T00:10:32;0.42;89.35
70166;SHT30;57541;47.408;18.822;2024-01-16T00:11:04;0.43;89.36
70166;SHT30;57541;47.408;18.822;2024-01-16T00:11:45;0.49;89.39
70166;SHT30;57541;47.408;18.822;2024-01-16T00:12:17;0.48;89.26
70166;SHT30;57541;47.408;18.822;2024-01-16T00:12:48;0.49;89.22
70166;SHT30;57541;47.408;18.822;2024-01-16T00:13:20;0.46;89.25
70166;SHT30;57541;47.408;18.822;2024-01-16T00:13:52;0.48;89.20
70166;SHT30;57541;47.408;18.822;2024-01-16T00:14:25;0.45;89.12
70166;SHT30;57541;47.408;18.822;2024-01-16T00:14:56;0.45;89.18
70166;SHT30;57541;47.408;18.822;2024-01-16T00:15:28;0.46;89.20
70166;SHT30;57541;47.408;18.822;2024-01-16T00:16:02;0.50;89.29
70166;SHT30;57541;47.408;18.822;2024-01-16T00:16:47;0.41;89.42
70166;SHT30;57541;47.408;18.822;2024-01-16T00:17:19;0.36;89.39
70166;SHT30;57541;47.408;18.822;2024-01-16T00:17:51;0.43;89.54
70166;SHT30;57541;47.408;18.822;2024-01-16T00:18:23;0.39;89.80
70166;SHT30;57541;47.408;18.822;2024-01-16T00:18:55;0.36;90.00
70166;SHT30;57541;47.408;18.822;2024-01-16T00:19:26;0.41;89.88
70166;SHT30;57541;47.408;18.822;2024-01-16T00:19:58;0.50;89.70
70166;SHT30;57541;47.408;18.822;2024-01-16T00:20:33;0.53;89.75
70166;SHT30;57541;47.408;18.822;2024-01-16T00:21:05;0.57;89.61
70166;SHT30;57541;47.408;18.822;2024-01-16T00:21:43;0.60;89.25
70166;SHT30;57541;47.408;18.822;2024-01-16T00:22:18;0.63;89.32
70166;SHT30;57541;47.408;18.822;2024-01-16T00:22:50;0.67;89.18
70166;SHT30;57541;47.408;18.822;2024-01-16T00:23:22;0.67;89.12
70166;SHT30;57541;47.408;18.822;2024-01-16T00:23:53;0.70;89.06
70166;SHT30;57541;47.408;18.822;2024-01-16T00:24:25;0.77;88.87
70166;SHT30;57541;47.408;18.822;2024-01-16T00:24:57;0.70;88.84
70166;SHT30;57541;47.408;18.822;2024-01-16T00:25:29;0.73;88.90
70166;SHT30;57541;47.408;18.822;2024-01-16T00:26:00;0.74;89.00
70166;SHT30;57541;47.408;18.822;2024-01-16T00:26:32;0.77;88.94
70166;SHT30;57541;47.408;18.822;2024-01-16T00:27:04;0.79;88.82
70166;SHT30;57541;47.408;18.822;2024-01-16T00:27:40;0.76;88.66
70166;SHT30;57541;47.408;18.822;2024-01-16T00:28:12;0.77;88.69
70166;SHT30;57541;47.408;18.822;2024-01-16T00:28:44;0.73;88.71
70166;SHT30;57541;47.408;18.822;2024-01-16T00:29:16;0.72;88.75
70166;SHT30;57541;47.408;18.822;2024-01-16T00:29:48;0.70;88.79
70166;SHT30;57541;47.408;18.822;2024-01-16T00:30:20;0.70;88.84
70166;SHT30;57541;47.408;18.822;2024-01-16T00:30:51;0.77;88.78
70166;SHT30;57541;47.408;18.822;2024-01-16T00:31:23;0.79;88.71
70166;SHT30;57541;47.408;18.822;2024-01-16T00:31:55;0.79;88.72
70166;SHT30;57541;47.408;18.822;2024-01-16T00:32:27;0.83;88.63
70166;SHT30;57541;47.408;18.822;2024-01-16T00:32:59;0.90;88.48
70166;SHT30;57541;47.408;18.822;2024-01-16T00:33:31;0.98;88.11
70166;SHT30;57541;47.408;18.822;2024-01-16T00:34:02;0.97;87.92
70166;SHT30;57541;47.408;18.822;2024-01-16T00:34:35;1.04;87.85
70166;SHT30;57541;47.408;18.822;2024-01-16T00:35:07;1.08;87.66
70166;SHT30;57541;47.408;18.822;2024-01-16T00:35:39;1.04;87.52
70166;SHT30;57541;47.408;18.822;2024-01-16T00:36:11;1.04;87.59
70166;SHT30;57541;47.408;18.822;2024-01-16T00:36:42;1.03;87.83
70166;SHT30;57541;47.408;18.822;2024-01-16T00:37:14;1.08;87.66
70166;SHT30;57541;47.408;18.822;2024-01-16T00:37:46;1.07;87.60
70166;SHT30;57541;47.408;18.822;2024-01-16T00:38:18;1.07;87.57
70166;SHT30;57541;47.408;18.822;2024-01-16T00:38:49;1.07;87.60
70166;SHT30;57541;47.408;18.822;2024-01-16T00:39:21;1.08;87.61
70166;SHT30;57541;47.408;18.822;2024-01-16T00:39:53;1.07;87.60
70166;SHT30;57541;47.408;18.822;2024-01-16T00:40:25;1.05;87.67
70166;SHT30;57541;47.408;18.822;2024-01-16T00:40:56;1.03;87.67
70166;SHT30;57541;47.408;18.822;2024-01-16T00:41:28;1.03;87.93
70166;SHT30;57541;47.408;18.822;2024-01-16T00:42:01;1.03;87.76
70166;SHT30;57541;47.408;18.822;2024-01-16T00:42:33;1.07;87.77
70166;SHT30;57541;47.408;18.822;2024-01-16T00:43:05;1.11;87.73
70166;SHT30;57541;47.408;18.822;2024-01-16T00:43:36;1.05;87.81
70166;SHT30;57541;47.408;18.822;2024-01-16T00:44:08;1.08;87.87
70166;SHT30;57541;47.408;18.822;2024-01-16T00:44:40;1.11;87.70
70166;SHT30;57541;47.408;18.822;2024-01-16T00:45:12;1.07;87.77
70166;SHT30;57541;47.408;18.822;2024-01-16T00:45:44;1.09;87.59
70166;SHT30;57541;47.408;18.822;2024-01-16T00:46:16;1.05;87.59
70166;SHT30;57541;47.408;18.822;2024-01-16T00:46:48;1.08;87.70
70166;SHT30;57541;47.408;18.822;2024-01-16T00:47:20;1.09;87.68
70166;SHT30;57541;47.408;18.822;2024-01-16T00:47:51;1.13;87.93
70166;SHT30;57541;47.408;18.822;2024-01-16T00:48:23;1.11;87.83
70166;SHT30;57541;47.408;18.822;2024-01-16T00:48:55;1.11;87.68
70166;SHT30;57541;47.408;18.822;2024-01-16T00:49:27;1.05;87.51
70166;SHT30;57541;47.408;18.822;2024-01-16T00:50:03;1.09;87.55
70166;SHT30;57541;47.408;18.822;2024-01-16T00:50:35;1.11;87.34
70166;SHT30;57541;47.408;18.822;2024-01-16T00:51:06;1.11;87.35
70166;SHT30;57541;47.408;18.822;2024-01-16T00:51:38;1.11;87.31
70166;SHT30;57541;47.408;18.822;2024-01-16T00:52:10;1.11;87.21
70166;SHT30;57541;47.408;18.822;2024-01-16T00:52:42;1.14;87.26
70166;SHT30;57541;47.408;18.822;2024-01-16T00:53:13;1.13;87.28
70166;SHT30;57541;47.408;18.822;2024-01-16T00:53:45;1.14;87.48
70166;SHT30;57541;47.408;18.822;2024-01-16T00:54:17;1.09;87.30
70166;SHT30;57541;47.408;18.822;2024-01-16T00:54:49;1.13;87.13
70166;SHT30;57541;47.408;18.822;2024-01-16T00:55:21;1.15;87.05
70166;SHT30;57541;47.408;18.822;2024-01-16T00:55:53;1.07;87.01
70166;SHT30;57541;47.408;18.822;2024-01-16T00:56:25;1.07;87.12
70166;SHT30;57541;47.408;18.822;2024-01-16T00:56:59;1.13;87.04
70166;SHT30;57541;47.408;18.822;2024-01-16T00:57:31;1.07;86.95
70166;SHT30;57541;47.408;18.822;2024-01-16T00:58:03;1.08;87.00
70166;SHT30;57541;47.408;18.822;2024-01-16T00:58:35;1.04;87.09
70166;SHT30;57541;47.408;18.822;2024-01-16T00:59:06;1.08;87.06
70166;SHT30;57541;47.408;18.822;2024-01-16T00:59:38;1.20;86.75
70166;SHT30;57541;47.408;18.822;2024-01-16T01:00:10;1.22;86.59
70166;SHT30;57541;47.408;18.822;2024-01-16T01:00:43;1.24;86.52
70166;SHT30;57541;47.408;18.822;2024-01-16T01:01:15;1.34;86.26
70166;SHT30;57541;47.408;18.822;2024-01-16T01:01:47;1.32;86.15
70166;SHT30;57541;47.408;18.822;2024-01-16T01:02:18;1.34;85.98
70166;SHT30;57541;47.408;18.822;2024-01-16T01:02:50;1.30;85.98
70166;SHT30;57541;47.408;18.822;2024-01-16T01:03:22;1.32;86.06
70166;SHT30;57541;47.408;18.822;2024-01-16T01:03:54;1.30;86.09
70166;SHT30;57541;47.408;18.822;2024-01-16T01:04:26;1.36;85.95
70166;SHT30;57541;47.408;18.822;2024-01-16T01:04:58;1.45;85.78
70166;SHT30;57541;47.408;18.822;2024-01-16T01:05:29;1.42;85.85
70166;SHT30;57541;47.408;18.822;2024-01-16T01:06:01;1.46;85.69
70166;SHT30;57541;47.408;18.822;2024-01-16T01:06:35;1.42;85.80
70166;SHT30;57541;47.408;18.822;2024-01-16T01:07:07;1.48;85.61
70166;SHT30;57541;47.408;18.822;2024-01-16T01:07:39;1.52;85.77
70166;SHT30;57541;47.408;18.822;2024-01-16T01:08:11;1.52;85.78
70166;SHT30;57541;47.408;18.822;2024-01-16T01:08:43;1.53;85.77
70166;SHT30;57541;47.408;18.822;2024-01-16T01:09:16;1.55;85.57
70166;SHT30;57541;47.408;18.822;2024-01-16T01:09:47;1.53;85.60
70166;SHT30;57541;47.408;18.822;2024-01-16T01:10:19;1.55;85.75
70166;SHT30;57541;47.408;18.822;2024-01-16T01:10:51;1.60;85.55
70166;SHT30;57541;47.408;18.822;2024-01-16T01:11:23;1.58;85.44
70166;SHT30;57541;47.408;18.822;2024-01-16T01:11:54;1.58;85.36
70166;SHT30;57541;47.408;18.822;2024-01-16T01:12:26;1.59;85.45
70166;SHT30;57541;47.408;18.822;2024-01-16T01:12:58;1.62;85.38
70166;SHT30;57541;47.408;18.822;2024-01-16T01:13:30;1.62;85.24
70166;SHT30;57541;47.408;18.822;2024-01-16T01:14:01;1.65;85.17
70166;SHT30;57541;47.408;18.822;2024-01-16T01:14:33;1.65;85.24
70166;SHT30;57541;47.408;18.822;2024-01-16T01:15:06;1.65;85.29
70166;SHT30;57541;47.408;18.822;2024-01-16T01:15:38;1.58;85.32
70166;SHT30;57541;47.408;18.822;2024-01-16T01:16:10;1.59;85.28
70166;SHT30;57541;47.408;18.822;2024-01-16T01:16:41;1.62;85.33
70166;SHT30;57541;47.408;18.822;2024-01-16T01:17:13;1.65;85.22
70166;SHT30;57541;47.408;18.822;2024-01-16T01:17:45;1.62;85.30
70166;SHT30;57541;47.408;18.822;2024-01-16T01:18:18;1.67;85.00
70166;SHT30;57541;47.408;18.822;2024-01-16T01:18:50;1.66;84.92
70166;SHT30;57541;47.408;18.822;2024-01-16T01:19:22;1.74;84.92
70166;SHT30;57541;47.408;18.822;2024-01-16T01:19:54;1.73;84.85
70166;SHT30;57541;47.408;18.822;2024-01-16T01:20:26;1.69;84.84
70166;SHT30;57541;47.408;18.822;2024-01-16T01:20:58;1.73;84.92
70166;SHT30;57541;47.408;18.822;2024-01-16T01:21:29;1.73;84.81
70166;SHT30;57541;47.408;18.822;2024-01-16T01:22:01;1.70;84.95
70166;SHT30;57541;47.408;18.822;2024-01-16T01:22:33;1.69;85.19
70166;SHT30;57541;47.408;18.822;2024-01-16T01:23:04;1.63;85.24
70166;SHT30;57541;47.408;18.822;2024-01-16T01:23:36;1.67;85.22
70166;SHT30;57541;47.408;18.822;2024-01-16T01:24:08;1.73;85.14
70166;SHT30;57541;47.408;18.822;2024-01-16T01:24:40;1.69;84.99
70166;SHT30;57541;47.408;18.822;2024-01-16T01:25:12;1.72;85.16
70166;SHT30;57541;47.408;18.822;2024-01-16T01:25:44;1.72;85.06
70166;SHT30;57541;47.408;18.822;2024-01-16T01:26:16;1.76;85.09
70166;SHT30;57541;47.408;18.822;2024-01-16T01:26:49;1.77;85.07
70166;SHT30;57541;47.408;18.822;2024-01-16T01:27:21;1.76;85.03
70166;SHT30;57541;47.408;18.822;2024-01-16T01:27:53;1.80;85.14
70166;SHT30;57541;47.408;18.822;2024-01-16T01:28:25;1.76;85.02
70166;SHT30;57541;47.408;18.822;2024-01-16T01:28:56;1.79;85.00
70166;SHT30;57541;47.408;18.822;2024-01-16T01:29:28;1.77;85.26
70166;SHT30;57541;47.408;18.822;2024-01-16T01:30:00;1.76;85.28
70166;SHT30;57541;47.408;18.822;2024-01-16T01:30:32;1.74;85.23
70166;SHT30;57541;47.408;18.822;2024-01-16T01:31:04;1.74;85.22
70166;SHT30;57541;47.408;18.822;2024-01-16T01:31:36;1.79;85.37
70166;SHT30;57541;47.408;18.822;2024-01-16T01:32:07;1.83;85.32
70166;SHT30;57541;47.408;18.822;2024-01-16T01:32:39;1.76;85.11
70166;SHT30;57541;47.408;18.822;2024-01-16T01:33:11;1.77;85.05
70166;SHT30;57541;47.408;18.822;2024-01-16T01:33:44;1.70;85.21
70166;SHT30;57541;47.408;18.822;2024-01-16T01:34:16;1.69;85.31
70166;SHT30;57541;47.408;18.822;2024-01-16T01:34:48;1.69;85.41
70166;SHT30;57541;47.408;18.822;2024-01-16T01:35:20;1.70;85.38
70166;SHT30;57541;47.408;18.822;2024-01-16T01:35:51;1.72;85.40
70166;SHT30;57541;47.408;18.822;2024-01-16T01:36:23;1.69;85.48
70166;SHT30;57541;47.408;18.822;2024-01-16T01:36:55;1.65;85.58
70166;SHT30;57541;47.408;18.822;2024-01-16T01:37:29;1.62;85.55
70166;SHT30;57541;47.408;18.822;2024-01-16T01:38:01;1.63;85.61
70166;SHT30;57541;47.408;18.822;2024-01-16T01:38:32;1.66;85.45
70166;SHT30;57541;47.408;18.822;2024-01-16T01:39:04;1.66;85.43
70166;SHT30;57541;47.408;18.822;2024-01-16T01:39:37;1.62;85.59
70166;SHT30;57541;47.408;18.822;2024-01-16T01:40:09;1.65;85.83
70166;SHT30;57541;47.408;18.822;2024-01-16T01:40:41;1.62;85.71
70166;SHT30;57541;47.408;18.822;2024-01-16T01:41:15;1.58;85.68
70166;SHT30;57541;47.408;18.822;2024-01-16T01:41:46;1.56;85.78
70166;SHT30;57541;47.408;18.822;2024-01-16T01:42:18;1.56;85.73
70166;SHT30;57541;47.408;18.822;2024-01-16T01:42:50;1.58;85.77
70166;SHT30;57541;47.408;18.822;2024-01-16T01:43:23;1.43;85.82
70166;SHT30;57541;47.408;18.822;2024-01-16T01:43:55;1.51;86.05
70166;SHT30;57541;47.408;18.822;2024-01-16T01:44:27;1.51;85.94
70166;SHT30;57541;47.408;18.822;2024-01-16T01:44:59;1.41;86.08
70166;SHT30;57541;47.408;18.822;2024-01-16T01:45:31;1.41;86.11
70166;SHT30;57541;47.408;18.822;2024-01-16T01:46:15;1.43;86.30
70166;SHT30;57541;47.408;18.822;2024-01-16T01:46:47;1.41;86.29
70166;SHT30;57541;47.408;18.822;2024-01-16T01:47:19;1.39;86.32
70166;SHT30;57541;47.408;18.822;2024-01-16T01:47:51;1.39;86.27
70166;SHT30;57541;47.408;18.822;2024-01-16T01:48:23;1.39;86.27
70166;SHT30;57541;47.408;18.822;2024-01-16T01:48:55;1.39;86.44
70166;SHT30;57541;47.408;18.822;2024-01-16T01:49:27;1.42;86.25
70166;SHT30;57541;47.408;18.822;2024-01-16T01:49:59;1.42;86.14
70166;SHT30;57541;47.408;18.822;2024-01-16T01:50:32;1.41;86.22
70166;SHT30;57541;47.408;18.822;2024-01-16T01:51:04;1.35;86.26
70166;SHT30;57541;47.408;18.822;2024-01-16T01:51:36;1.36;86.42
70166;SHT30;57541;47.408;18.822;2024-01-16T01:52:07;1.32;86.52
70166;SHT30;57541;47.408;18.822;2024-01-16T01:52:40;1.27;86.52
70166;SHT30;57541;47.408;18.822;2024-01-16T01:53:12;1.27;86.66
70166;SHT30;57541;47.408;18.822;2024-01-16T01:53:45;1.22;86.79
70166;SHT30;57541;47.408;18.822;2024-01-16T01:54:19;1.24;86.83
70166;SHT30;57541;47.408;18.822;2024-01-16T01:54:51;1.25;86.78
70166;SHT30;57541;47.408;18.822;2024-01-16T01:55:23;1.30;86.70
70166;SHT30;57541;47.408;18.822;2024-01-16T01:55:55;1.27;86.68
70166;SHT30;57541;47.408;18.822;2024-01-16T01:56:27;1.28;86.77
70166;SHT30;57541;47.408;18.822;2024-01-16T01:56:59;1.24;86.84
70166;SHT30;57541;47.408;18.822;2024-01-16T01:57:33;1.22;86.94
70166;SHT30;57541;47.408;18.822;2024-01-16T01:58:04;1.24;86.93
70166;SHT30;57541;47.408;18.822;2024-01-16T01:58:37;1.18;86.94
70166;SHT30;57541;47.408;18.822;2024-01-16T01:59:11;1.18;86.88
70166;SHT30;57541;47.408;18.822;2024-01-16T01:59:45;1.18;86.92
70166;SHT30;57541;47.408;18.822;2024-01-16T02:00:17;1.18;87.03
70166;SHT30;57541;47.408;18.822;2024-01-16T02:00:50;1.25;86.94
70166;SHT30;57541;47.408;18.822;2024-01-16T02:01:25;1.22;86.64
70166;SHT30;57541;47.408;18.822;2024-01-16T02:01:57;1.27;86.67
70166;SHT30;57541;47.408;18.822;2024-01-16T02:02:29;1.27;86.69
70166;SHT30;57541;47.408;18.822;2024-01-16T02:03:01;1.25;86.65
70166;SHT30;57541;47.408;18.822;2024-01-16T02:03:43;1.27;86.56
70166;SHT30;57541;47.408;18.822;2024-01-16T02:04:16;1.25;86.49
70166;SHT30;57541;47.408;18.822;2024-01-16T02:04:49;1.21;86.67
70166;SHT30;57541;47.408;18.822;2024-01-16T02:05:22;1.24;86.74
70166;SHT30;57541;47.408;18.822;2024-01-16T02:05:55;1.30;86.71
70166;SHT30;57541;47.408;18.822;2024-01-16T02:06:27;1.30;86.78
70166;SHT30;57541;47.408;18.822;2024-01-16T02:07:00;1.28;86.87
70166;SHT30;57541;47.408;18.822;2024-01-16T02:07:32;1.21;86.78
70166;SHT30;57541;47.408;18.822;2024-01-16T02:08:05;1.24;86.84
70166;SHT30;57541;47.408;18.822;2024-01-16T02:08:38;1.18;87.18
70166;SHT30;57541;47.408;18.822;2024-01-16T02:09:10;1.17;87.14
70166;SHT30;57541;47.408;18.822;2024-01-16T02:09:44;1.18;86.85
70166;SHT30;57541;47.408;18.822;2024-01-16T02:10:16;1.22;86.95
70166;SHT30;57541;47.408;18.822;2024-01-16T02:10:49;1.24;86.93
70166;SHT30;57541;47.408;18.822;2024-01-16T02:11:21;1.21;86.96
70166;SHT30;57541;47.408;18.822;2024-01-16T02:11:53;1.24;86.94
70166;SHT30;57541;47.408;18.822;2024-01-16T02:12:25;1.24;86.96
70166;SHT30;57541;47.408;18.822;2024-01-16T02:12:56;1.13;86.90
70166;SHT30;57541;47.408;18.822;2024-01-16T02:13:28;1.09;87.16
70166;SHT30;57541;47.408;18.822;2024-01-16T02:14:00;1.05;87.43
70166;SHT30;57541;47.408;18.822;2024-01-16T02:14:32;1.09;87.46
70166;SHT30;57541;47.408;18.822;2024-01-16T02:15:04;1.11;87.23
70166;SHT30;57541;47.408;18.822;2024-01-16T02:15:36;1.13;87.18
70166;SHT30;57541;47.408;18.822;2024-01-16T02:16:21;1.13;87.10
70166;SHT30;57541;47.408;18.822;2024-01-16T02:16:53;1.14;86.88
70166;SHT30;57541;47.408;18.822;2024-01-16T02:17:24;1.14;86.82
70166;SHT30;57541;47.408;18.822;2024-01-16T02:17:57;1.15;86.90
70166;SHT30;57541;47.408;18.822;2024-01-16T02:18:29;1.21;87.01
70166;SHT30;57541;47.408;18.822;2024-01-16T02:19:01;1.21;86.94
70166;SHT30;57541;47.408;18.822;2024-01-16T02:19:33;1.21;86.92
70166;SHT30;57541;47.408;18.822;2024-01-16T02:20:05;1.08;86.98
70166;SHT30;57541;47.408;18.822;2024-01-16T02:20:39;1.07;87.15
70166;SHT30;57541;47.408;18.822;2024-01-16T02:21:11;1.05;87.31
70166;SHT30;57541;47.408;18.822;2024-01-16T02:21:48;1.01;87.33
70166;SHT30;57541;47.408;18.822;2024-01-16T02:22:25;1.05;87.35
70166;SHT30;57541;47.408;18.822;2024-01-16T02:23:02;1.04;87.33
70166;SHT30;57541;47.408;18.822;2024-01-16T02:23:35;1.09;87.29
70166;SHT30;57541;47.408;18.822;2024-01-16T02:24:08;1.11;87.20
70166;SHT30;57541;47.408;18.822;2024-01-16T02:24:39;1.03;87.47
70166;SHT30;57541;47.408;18.822;2024-01-16T02:25:11;1.14;87.43
70166;SHT30;57541;47.408;18.822;2024-01-16T02:25:44;1.14;87.23
70166;SHT30;57541;47.408;18.822;2024-01-16T02:26:17;1.18;87.20
70166;SHT30;57541;47.408;18.822;2024-01-16T02:26:49;1.13;87.13
70166;SHT30;57541;47.408;18.822;2024-01-16T02:27:21;1.14;87.20
70166;SHT30;57541;47.408;18.822;2024-01-16T02:27:53;1.14;87.15
70166;SHT30;57541;47.408;18.822;2024-01-16T02:28:25;1.15;87.07
70166;SHT30;57541;47.408;18.822;2024-01-16T02:28:56;1.17;87.02
70166;SHT30;57541;47.408;18.822;2024-01-16T02:29:28;1.14;86.97
70166;SHT30;57541;47.408;18.822;2024-01-16T02:30:00;1.15;87.00
70166;SHT30;57541;47.408;18.822;2024-01-16T02:30:32;1.14;87.23
70166;SHT30;57541;47.408;18.822;2024-01-16T02:31:04;1.11;87.23
70166;SHT30;57541;47.408;18.822;2024-01-16T02:31:36;1.13;87.16
70166;SHT30;57541;47.408;18.822;2024-01-16T02:32:10;1.20;87.17
70166;SHT30;57541;47.408;18.822;2024-01-16T02:32:42;1.15;87.04
70166;SHT30;57541;47.408;18.822;2024-01-16T02:33:14;1.11;87.11
70166;SHT30;57541;47.408;18.822;2024-01-16T02:33:46;1.15;87.17
70166;SHT30;57541;47.408;18.822;2024-01-16T02:34:18;1.14;87.16
70166;SHT30;57541;47.408;18.822;2024-01-16T02:34:50;1.17;87.28
70166;SHT30;57541;47.408;18.822;2024-01-16T02:35:22;1.25;87.15
70166;SHT30;57541;47.408;18.822;2024-01-16T02:35:54;1.28;86.97
70166;SHT30;57541;47.408;18.822;2024-01-16T02:36:26;1.30;86.89
70166;SHT30;57541;47.408;18.822;2024-01-16T02:36:58;1.27;86.79
70166;SHT30;57541;47.408;18.822;2024-01-16T02:37:30;1.24;86.93
70166;SHT30;57541;47.408;18.822;2024-01-16T02:38:02;1.28;87.03
70166;SHT30;57541;47.408;18.822;2024-01-16T02:38:33;1.31;86.92
70166;SHT30;57541;47.408;18.822;2024-01-16T02:39:05;1.34;86.84
70166;SHT30;57541;47.408;18.822;2024-01-16T02:39:38;1.30;86.90
70166;SHT30;57541;47.408;18.822;2024-01-16T02:40:10;1.30;86.87
70166;SHT30;57541;47.408;18.822;2024-01-16T02:40:42;1.30;86.89
70166;SHT30;57541;47.408;18.822;2024-01-16T02:41:16;1.27;86.90
70166;SHT30;57541;47.408;18.822;2024-01-16T02:41:48;1.28;86.88
70166;SHT30;57541;47.408;18.822;2024-01-16T02:42:19;1.25;86.88
70166;SHT30;57541;47.408;18.822;2024-01-16T02:42:51;1.28;86.91
70166;SHT30;57541;47.408;18.822;2024-01-16T02:43:23;1.25;86.88
70166;SHT30;57541;47.408;18.822;2024-01-16T02:43:57;1.18;87.33
70166;SHT30;57541;47.408;18.822;2024-01-16T02:44:29;1.24;87.06
70166;SHT30;57541;47.408;18.822;2024-01-16T02:45:00;1.27;86.90
70166;SHT30;57541;47.408;18.822;2024-01-16T02:45:33;1.34;86.90
70166;SHT30;57541;47.408;18.822;2024-01-16T02:46:05;1.32;86.79
70166;SHT30;57541;47.408;18.822;2024-01-16T02:46:38;1.34;86.71
70166;SHT30;57541;47.408;18.822;2024-01-16T02:47:10;1.34;86.87
70166;SHT30;57541;47.408;18.822;2024-01-16T02:47:42;1.32;86.57
70166;SHT30;57541;47.408;18.822;2024-01-16T02:48:14;1.25;86.49
70166;SHT30;57541;47.408;18.822;2024-01-16T02:48:47;1.28;86.54
70166;SHT30;57541;47.408;18.822;2024-01-16T02:49:18;1.31;86.36
70166;SHT30;57541;47.408;18.822;2024-01-16T02:49:50;1.35;86.40
70166;SHT30;57541;47.408;18.822;2024-01-16T02:50:22;1.34;86.34
70166;SHT30;57541;47.408;18.822;2024-01-16T02:50:54;1.36;86.13
70166;SHT30;57541;47.408;18.822;2024-01-16T02:51:26;1.38;86.14
70166;SHT30;57541;47.408;18.822;2024-01-16T02:51:58;1.36;86.00
70166;SHT30;57541;47.408;18.822;2024-01-16T02:52:30;1.39;85.99
70166;SHT30;57541;47.408;18.822;2024-01-16T02:53:01;1.41;85.99
70166;SHT30;57541;47.408;18.822;2024-01-16T02:53:33;1.45;86.14
70166;SHT30;57541;47.408;18.822;2024-01-16T02:54:07;1.43;86.49
70166;SHT30;57541;47.408;18.822;2024-01-16T02:54:39;1.46;86.19
70166;SHT30;57541;47.408;18.822;2024-01-16T02:55:11;1.48;85.80
70166;SHT30;57541;47.408;18.822;2024-01-16T02:55:42;1.51;85.55
70166;SHT30;57541;47.408;18.822;2024-01-16T02:56:14;1.45;85.54
70166;SHT30;57541;47.408;18.822;2024-01-16T02:56:46;1.46;85.50
70166;SHT30;57541;47.408;18.822;2024-01-16T02:57:18;1.51;85.69
70166;SHT30;57541;47.408;18.822;2024-01-16T02:57:50;1.48;85.68
70166;SHT30;57541;47.408;18.822;2024-01-16T02:58:22;1.46;85.65
70166;SHT30;57541;47.408;18.822;2024-01-16T02:58:53;1.48;85.71
70166;SHT30;57541;47.408;18.822;2024-01-16T02:59:25;1.48;85.68
70166;SHT30;57541;47.408;18.822;2024-01-16T02:59:59;1.45;85.60
70166;SHT30;57541;47.408;18.822;2024-01-16T03:00:31;1.42;85.46
70166;SHT30;57541;47.408;18.822;2024-01-16T03:01:02;1.43;85.51
70166;SHT30;57541;47.408;18.822;2024-01-16T03:01:34;1.45;85.59
70166;SHT30;57541;47.408;18.822;2024-01-16T03:02:06;1.48;85.39
70166;SHT30;57541;47.408;18.822;2024-01-16T03:02:39;1.48;85.24
70166;SHT30;57541;47.408;18.822;2024-01-16T03:03:12;1.48;85.23
70166;SHT30;57541;47.408;18.822;2024-01-16T03:03:43;1.48;85.21
70166;SHT30;57541;47.408;18.822;2024-01-16T03:04:16;1.45;85.23
70166;SHT30;57541;47.408;18.822;2024-01-16T03:04:47;1.46;85.24
70166;SHT30;57541;47.408;18.822;2024-01-16T03:05:19;1.45;85.03
70166;SHT30;57541;47.408;18.822;2024-01-16T03:05:51;1.48;85.13
70166;SHT30;57541;47.408;18.822;2024-01-16T03:06:24;1.51;85.12
70166;SHT30;57541;47.408;18.822;2024-01-16T03:06:56;1.52;84.98
70166;SHT30;57541;47.408;18.822;2024-01-16T03:07:28;1.49;84.70
70166;SHT30;57541;47.408;18.822;2024-01-16T03:08:00;1.51;84.74
70166;SHT30;57541;47.408;18.822;2024-01-16T03:08:32;1.49;84.59
70166;SHT30;57541;47.408;18.822;2024-01-16T03:09:03;1.52;84.65
70166;SHT30;57541;47.408;18.822;2024-01-16T03:09:35;1.53;84.78
70166;SHT30;57541;47.408;18.822;2024-01-16T03:10:08;1.52;84.75
70166;SHT30;57541;47.408;18.822;2024-01-16T03:10:39;1.49;84.81
70166;SHT30;57541;47.408;18.822;2024-01-16T03:11:11;1.48;84.98
70166;SHT30;57541;47.408;18.822;2024-01-16T03:11:43;1.48;84.94
70166;SHT30;57541;47.408;18.822;2024-01-16T03:12:15;1.48;84.99
70166;SHT30;57541;47.408;18.822;2024-01-16T03:12:47;1.53;84.90
70166;SHT30;57541;47.408;18.822;2024-01-16T03:13:19;1.55;84.63
70166;SHT30;57541;47.408;18.822;2024-01-16T03:13:50;1.55;84.42
70166;SHT30;57541;47.408;18.822;2024-01-16T03:14:24;1.56;84.22
70166;SHT30;57541;47.408;18.822;2024-01-16T03:14:56;1.52;84.30
70166;SHT30;57541;47.408;18.822;2024-01-16T03:15:28;1.51;84.22
70166;SHT30;57541;47.408;18.822;2024-01-16T03:16:06;1.56;84.15
70166;SHT30;57541;47.408;18.822;2024-01-16T03:16:38;1.52;84.49
70166;SHT30;57541;47.408;18.822;2024-01-16T03:17:10;1.55;84.35
70166;SHT30;57541;47.408;18.822;2024-01-16T03:17:42;1.55;84.13
70166;SHT30;57541;47.408;18.822;2024-01-16T03:18:14;1.56;83.98
70166;SHT30;57541;47.408;18.822;2024-01-16T03:18:46;1.58;83.94
70166;SHT30;57541;47.408;18.822;2024-01-16T03:19:19;1.53;84.03
70166;SHT30;57541;47.408;18.822;2024-01-16T03:19:53;1.53;83.99
70166;SHT30;57541;47.408;18.822;2024-01-16T03:20:24;1.56;83.91
70166;SHT30;57541;47.408;18.822;2024-01-16T03:20:58;1.56;83.78
70166;SHT30;57541;47.408;18.822;2024-01-16T03:21:30;1.55;83.82
70166;SHT30;57541;47.408;18.822;2024-01-16T03:22:02;1.59;83.74
70166;SHT30;57541;47.408;18.822;2024-01-16T03:22:35;1.59;83.55
70166;SHT30;57541;47.408;18.822;2024-01-16T03:23:06;1.59;83.52
70166;SHT30;57541;47.408;18.822;2024-01-16T03:23:38;1.60;83.70
70166;SHT30;57541;47.408;18.822;2024-01-16T03:24:10;1.62;83.80